Time;durP1;ratioP1;P1;durP2;ratioP2;P2;SDS_P1;SDS_P2;PMS_P1;PMS_P2;Temp;Humidity;BMP_temperature;BMP_pressure;BME280_temperature;BME280_humidity;BME280_pressure;Samples;Min_cycle;Max_cycle;Signal;HPM_P1;HPM_P2
2023/01/05 00:01:41;;;;;;;24.20;4.30;;;10.20;99.90;;;;;;5010815;28;20050;-76
2023/01/05 00:04:07;;;;;;;19.90;3.88;;;10.20;99.90;;;;;;5009537;28;20515;-76
2023/01/05 00:06:33;;;;;;;25.10;4.20;;;10.10;99.90;;;;;;4994207;28;20081;-76
2023/01/05 00:08:59;;;;;;;16.90;4.25;;;10.10;99.90;;;;;;4994322;28;20037;-76
2023/01/05 00:22:37;;;;;;;27.25;5.20;;;9.90;99.90;;;;;;5016012;28;20100;-76
2023/01/05 00:25:26;;;;;;;23.73;4.28;;;10.10;99.90;;;;;;5016866;28;20034;-76
2023/01/05 00:27:52;;;;;;;20.70;3.80;;;10.10;99.90;;;;;;5017498;28;20185;-76
2023/01/05 00:30:27;;;;;;;21.75;4.35;;;10.00;99.90;;;;;;5016998;28;20443;-76
2023/01/05 00:32:53;;;;;;;18.40;3.72;;;9.80;99.90;;;;;;5016170;28;20117;-76
2023/01/05 00:35:19;;;;;;;22.17;4.20;;;9.80;99.90;;;;;;5016715;28;20081;-76
2023/01/05 00:37:45;;;;;;;20.48;3.65;;;9.90;99.90;;;;;;5016962;28;20030;-75
2023/01/05 00:40:14;;;;;;;15.52;3.85;;;10.00;99.90;;;;;;5016964;28;20500;-75
2023/01/05 00:42:40;;;;;;;20.05;4.82;;;10.10;99.90;;;;;;5016085;28;20037;-75
2023/01/05 00:45:08;;;;;;;14.52;3.75;;;10.00;99.90;;;;;;5016908;28;20515;-76
2023/01/05 00:50:02;;;;;;;20.20;5.25;;;9.90;99.90;;;;;;5060174;28;20106;-79
2023/01/05 00:52:27;;;;;;;20.17;3.95;;;9.90;99.90;;;;;;5041431;28;20044;-80
2023/01/05 00:54:53;;;;;;;22.95;5.55;;;10.00;99.90;;;;;;5058592;28;20037;-80
2023/01/05 00:57:18;;;;;;;17.13;4.75;;;9.90;99.90;;;;;;5042594;28;20047;-79
2023/01/05 00:59:44;;;;;;;18.63;4.63;;;9.90;99.90;;;;;;5059045;28;20575;-80
2023/01/05 01:02:09;;;;;;;29.33;6.38;;;10.10;99.90;;;;;;5059655;28;20513;-80
2023/01/05 01:04:35;;;;;;;19.98;5.68;;;10.10;99.90;;;;;;5058427;28;20467;-80
2023/01/05 01:07:02;;;;;;;24.02;5.18;;;10.00;99.90;;;;;;5058689;28;20041;-80
2023/01/05 01:09:28;;;;;;;28.23;5.88;;;10.00;99.90;;;;;;5043140;28;20052;-80
2023/01/05 01:11:53;;;;;;;30.55;5.72;;;10.10;99.90;;;;;;5059036;28;20040;-80
2023/01/05 01:14:19;;;;;;;31.13;5.90;;;9.90;99.90;;;;;;5058628;28;20520;-80
2023/01/05 01:16:45;;;;;;;34.13;5.90;;;9.90;99.90;;;;;;5043096;28;20086;-80
2023/01/05 01:19:20;;;;;;;25.30;6.38;;;10.10;99.90;;;;;;5060169;28;20131;-80
2023/01/05 01:21:46;;;;;;;25.90;5.55;;;9.90;99.90;;;;;;5042879;28;20045;-79
2023/01/05 01:24:18;;;;;;;23.42;4.82;;;9.90;99.90;;;;;;5055675;28;20383;-80
2023/01/05 01:26:44;;;;;;;27.30;5.78;;;10.10;99.90;;;;;;5043457;28;20040;-80
2023/01/05 01:29:09;;;;;;;27.35;4.80;;;10.00;99.90;;;;;;5063679;28;20048;-80
2023/01/05 01:31:36;;;;;;;29.67;4.93;;;9.90;99.90;;;;;;5056253;28;20091;-80
2023/01/05 01:34:02;;;;;;;27.00;6.47;;;9.90;99.90;;;;;;5038729;28;20100;-80
2023/01/05 01:36:28;;;;;;;22.75;5.60;;;9.90;99.90;;;;;;5063202;28;20383;-80
2023/01/05 01:38:53;;;;;;;25.67;5.28;;;10.10;99.90;;;;;;5061327;28;20044;-79
2023/01/05 01:41:19;;;;;;;27.38;5.38;;;10.00;99.90;;;;;;5056121;28;20063;-80
2023/01/05 01:43:50;;;;;;;22.45;5.10;;;10.00;99.90;;;;;;5054455;28;20569;-80
2023/01/05 01:46:17;;;;;;;29.13;5.53;;;9.90;99.90;;;;;;5038108;28;20403;-79
2023/01/05 01:48:50;;;;;;;28.63;6.28;;;9.90;99.90;;;;;;5054511;28;20037;-79
2023/01/05 01:51:29;;;;;;;26.35;5.35;;;10.10;99.90;;;;;;5054731;28;20048;-80
2023/01/05 01:53:58;;;;;;;24.63;6.00;;;9.90;99.90;;;;;;5053811;28;20041;-80
2023/01/05 01:56:29;;;;;;;26.35;5.18;;;9.90;99.90;;;;;;5053997;28;20052;-80
2023/01/05 01:58:55;;;;;;;22.83;5.43;;;9.90;99.90;;;;;;5038025;28;20065;-80
2023/01/05 02:01:21;;;;;;;24.15;4.97;;;9.90;99.90;;;;;;5037629;28;20080;-80
2023/01/05 02:03:46;;;;;;;32.53;5.05;;;10.00;99.90;;;;;;5054173;28;20041;-80
2023/01/05 02:06:12;;;;;;;28.98;6.05;;;10.20;99.90;;;;;;5054659;28;20045;-80
2023/01/05 02:08:38;;;;;;;22.80;4.97;;;10.10;99.90;;;;;;5038736;28;20040;-80
2023/01/05 02:11:26;;;;;;;31.00;6.15;;;9.90;99.90;;;;;;5054553;28;20092;-80
2023/01/05 02:14:10;;;;;;;26.67;5.65;;;9.90;99.90;;;;;;5037584;28;20059;-80
2023/01/05 02:16:39;;;;;;;29.95;5.65;;;10.10;99.90;;;;;;5054617;28;20044;-80
2023/01/05 02:19:33;;;;;;;28.55;5.22;;;10.10;99.90;;;;;;5053578;28;20136;-80
2023/01/05 02:22:25;;;;;;;26.08;5.20;;;9.90;99.90;;;;;;5054256;28;20036;-80
2023/01/05 02:24:53;;;;;;;24.27;4.55;;;10.10;99.90;;;;;;5037229;28;20032;-80
2023/01/05 02:27:37;;;;;;;27.13;4.30;;;10.00;99.90;;;;;;5039723;28;20053;-80
2023/01/05 02:30:20;;;;;;;32.00;5.82;;;10.10;99.90;;;;;;5043521;28;20052;-80
2023/01/05 02:32:55;;;;;;;19.73;4.55;;;10.10;99.90;;;;;;5036504;28;20049;-80
2023/01/05 02:35:33;;;;;;;25.80;4.22;;;10.10;99.90;;;;;;5052898;28;20045;-80
2023/01/05 02:38:24;;;;;;;21.10;5.03;;;10.10;99.90;;;;;;5053173;28;20548;-80
2023/01/05 02:40:56;;;;;;;22.30;4.80;;;10.20;99.90;;;;;;5053746;28;20041;-80
2023/01/05 02:43:21;;;;;;;28.13;5.55;;;10.00;99.90;;;;;;5035564;28;20041;-80
2023/01/05 02:45:48;;;;;;;19.80;4.65;;;9.90;99.90;;;;;;5053045;28;20033;-80
2023/01/05 02:48:13;;;;;;;17.55;4.18;;;10.00;99.90;;;;;;5053443;28;20116;-80
2023/01/05 02:50:50;;;;;;;19.38;4.53;;;10.00;99.90;;;;;;5053638;28;20029;-80
2023/01/05 02:53:26;;;;;;;19.05;4.15;;;10.10;99.90;;;;;;5036712;28;20041;-80
2023/01/05 02:56:09;;;;;;;27.75;5.47;;;10.00;99.90;;;;;;5060531;28;20094;-80
2023/01/05 02:58:50;;;;;;;19.77;4.57;;;10.00;99.90;;;;;;5043290;28;20107;-80
2023/01/05 03:01:33;;;;;;;22.17;5.32;;;10.10;99.90;;;;;;5037144;28;20102;-80
2023/01/05 03:04:06;;;;;;;25.52;4.85;;;9.90;99.90;;;;;;5052411;28;20041;-80
2023/01/05 03:06:46;;;;;;;27.15;6.25;;;9.90;99.90;;;;;;5053880;28;20041;-80
2023/01/05 03:09:15;;;;;;;18.90;4.43;;;9.90;99.90;;;;;;5053672;28;20044;-80
2023/01/05 03:15:02;;;;;;;24.55;4.70;;;10.10;99.90;;;;;;5057950;28;20037;-80
2023/01/05 03:17:50;;;;;;;27.75;4.95;;;10.00;99.90;;;;;;5044008;28;20040;-80
2023/01/05 03:20:19;;;;;;;22.30;4.53;;;9.90;99.90;;;;;;5058897;28;20061;-80
2023/01/05 03:37:36;;;;;;;28.08;5.88;;;10.10;99.90;;;;;;5062533;28;20048;-80
2023/01/05 03:40:06;;;;;;;23.30;5.35;;;10.00;99.90;;;;;;5035811;28;20040;-80
2023/01/05 03:42:32;;;;;;;20.80;4.60;;;9.80;99.90;;;;;;5035588;28;20064;-80
2023/01/05 03:44:57;;;;;;;25.92;5.05;;;9.80;99.90;;;;;;5052483;28;20037;-80
2023/01/05 03:47:23;;;;;;;21.17;4.18;;;9.90;99.90;;;;;;5052774;28;20094;-81
2023/01/05 03:49:50;;;;;;;21.77;4.47;;;9.90;99.90;;;;;;5053307;28;20044;-80
2023/01/05 03:52:16;;;;;;;21.77;4.45;;;10.10;99.90;;;;;;5054089;28;20041;-80
2023/01/05 03:54:41;;;;;;;20.33;4.05;;;10.00;99.90;;;;;;5053102;28;20091;-79
2023/01/05 03:57:07;;;;;;;20.40;6.28;;;10.00;99.90;;;;;;5037026;28;20086;-80
2023/01/05 03:59:32;;;;;;;24.88;5.38;;;9.90;99.90;;;;;;5053643;28;20040;-80
2023/01/05 04:01:58;;;;;;;19.48;4.70;;;10.00;99.90;;;;;;5054224;28;20048;-81
2023/01/05 04:04:24;;;;;;;26.98;5.88;;;10.10;99.90;;;;;;5035129;28;20057;-80
2023/01/05 04:06:49;;;;;;;19.88;5.45;;;10.10;99.90;;;;;;5054204;28;20051;-80
2023/01/05 04:09:15;;;;;;;31.10;6.38;;;9.90;99.90;;;;;;5052601;28;20124;-80
2023/01/05 04:11:40;;;;;;;28.42;5.60;;;9.90;99.90;;;;;;5030564;28;20060;-80
2023/01/05 04:14:06;;;;;;;21.98;4.80;;;10.00;99.90;;;;;;5050081;28;20052;-80
2023/01/05 04:16:32;;;;;;;22.27;4.80;;;9.90;99.90;;;;;;5055689;28;20033;-81
2023/01/05 04:18:57;;;;;;;23.50;5.05;;;10.00;99.90;;;;;;5044948;28;20052;-81
2023/01/05 04:21:23;;;;;;;29.20;5.55;;;10.00;99.90;;;;;;5055063;28;20033;-81
2023/01/05 04:23:48;;;;;;;25.33;4.97;;;9.90;99.90;;;;;;5036624;28;20044;-81
2023/01/05 04:26:14;;;;;;;16.35;4.07;;;9.90;99.90;;;;;;5054848;28;20036;-80
2023/01/05 04:28:39;;;;;;;20.42;4.28;;;9.80;99.90;;;;;;5053107;28;20247;-81
2023/01/05 04:31:05;;;;;;;23.27;4.72;;;9.90;99.90;;;;;;5041082;28;20082;-80
2023/01/05 04:33:30;;;;;;;26.40;4.38;;;9.80;99.90;;;;;;5040147;28;20132;-81
2023/01/05 04:35:56;;;;;;;19.13;5.10;;;9.90;99.90;;;;;;5053674;28;20094;-81
2023/01/05 04:38:21;;;;;;;20.63;4.88;;;10.00;99.90;;;;;;5054038;28;20044;-81
2023/01/05 04:40:49;;;;;;;26.77;6.10;;;9.90;99.90;;;;;;5036538;28;20037;-81
2023/01/05 04:43:14;;;;;;;17.75;5.35;;;10.00;99.90;;;;;;5052114;28;20041;-81
2023/01/05 04:45:40;;;;;;;22.23;5.45;;;9.90;99.90;;;;;;5053313;28;20125;-81
2023/01/05 04:48:05;;;;;;;23.98;4.43;;;10.00;99.90;;;;;;5036031;28;20037;-81
2023/01/05 04:50:31;;;;;;;23.00;4.13;;;10.10;99.90;;;;;;5036570;28;20094;-81
2023/01/05 04:52:57;;;;;;;21.27;4.05;;;9.90;99.90;;;;;;5035467;28;20505;-81
2023/01/05 04:55:23;;;;;;;31.85;6.55;;;10.00;99.90;;;;;;5052520;28;20040;-81
2023/01/05 04:57:48;;;;;;;25.50;4.75;;;9.90;99.90;;;;;;5037451;28;20414;-81
2023/01/05 05:00:14;;;;;;;20.55;4.63;;;10.10;99.90;;;;;;5056562;28;20044;-81
2023/01/05 05:02:39;;;;;;;27.15;5.05;;;10.10;99.90;;;;;;5038822;28;20087;-81
2023/01/05 05:05:05;;;;;;;20.45;3.55;;;10.10;99.90;;;;;;5055987;28;20036;-81
2023/01/05 05:07:31;;;;;;;24.08;4.75;;;10.10;99.90;;;;;;5055778;28;20037;-81
2023/01/05 05:09:56;;;;;;;22.88;4.65;;;10.10;99.90;;;;;;5056363;28;20037;-81
2023/01/05 05:12:22;;;;;;;23.80;5.15;;;10.10;99.90;;;;;;5055158;28;20040;-81
2023/01/05 05:14:48;;;;;;;23.77;4.07;;;10.10;99.90;;;;;;5055856;28;20037;-81
2023/01/05 05:17:15;;;;;;;17.73;4.45;;;10.10;99.90;;;;;;5055757;28;20041;-81
2023/01/05 05:19:40;;;;;;;18.10;4.90;;;10.10;99.90;;;;;;5056422;28;20077;-81
2023/01/05 05:22:06;;;;;;;16.42;3.40;;;10.20;99.90;;;;;;5056323;28;20079;-81
2023/01/05 05:24:32;;;;;;;24.42;4.00;;;10.20;99.90;;;;;;5040740;28;20036;-81
2023/01/05 05:26:57;;;;;;;14.43;4.60;;;10.10;99.90;;;;;;5056820;28;20509;-81
2023/01/05 05:29:23;;;;;;;16.02;3.78;;;10.10;99.90;;;;;;5058042;28;20075;-80
2023/01/05 05:31:49;;;;;;;24.27;4.97;;;10.10;99.90;;;;;;5060926;28;20487;-80
2023/01/05 05:34:15;;;;;;;18.75;4.15;;;10.20;99.90;;;;;;5068318;28;20048;-81
2023/01/05 05:36:41;;;;;;;16.08;4.07;;;10.20;99.90;;;;;;5067823;28;20041;-82
2023/01/05 05:39:07;;;;;;;15.30;3.40;;;10.10;99.90;;;;;;5067440;28;20043;-81
2023/01/05 05:41:32;;;;;;;27.52;4.47;;;10.10;99.90;;;;;;5058464;28;20032;-81
2023/01/05 05:43:59;;;;;;;21.65;5.22;;;10.10;99.90;;;;;;5040448;28;20132;-81
2023/01/05 05:46:29;;;;;;;19.80;4.80;;;10.10;99.90;;;;;;5041126;28;20043;-81
2023/01/05 05:48:55;;;;;;;23.33;3.55;;;10.20;99.90;;;;;;5057671;28;20052;-81
2023/01/05 05:51:21;;;;;;;20.15;4.30;;;10.20;99.90;;;;;;5057113;28;20154;-81
2023/01/05 05:53:47;;;;;;;18.13;4.68;;;10.10;99.90;;;;;;5056161;28;20154;-81
2023/01/05 05:56:12;;;;;;;17.77;3.88;;;10.20;99.90;;;;;;5040096;28;20048;-81
2023/01/05 05:58:38;;;;;;;21.00;4.70;;;10.20;99.90;;;;;;5057025;28;20041;-81
2023/01/05 06:01:03;;;;;;;24.15;5.07;;;10.10;99.90;;;;;;5056684;28;20047;-81
2023/01/05 06:03:29;;;;;;;20.20;5.13;;;10.20;99.90;;;;;;5038855;28;20041;-81
2023/01/05 06:05:54;;;;;;;20.38;4.43;;;10.20;99.90;;;;;;5056639;28;20083;-80
2023/01/05 06:08:20;;;;;;;17.52;4.75;;;10.10;99.90;;;;;;5056132;28;20414;-81
2023/01/05 06:10:47;;;;;;;16.17;4.00;;;10.10;99.90;;;;;;5056338;28;20133;-81
2023/01/05 06:13:13;;;;;;;19.75;4.90;;;10.10;99.90;;;;;;5058069;28;20041;-81
2023/01/05 06:15:39;;;;;;;20.13;3.83;;;10.00;99.90;;;;;;5058480;28;20051;-81
2023/01/05 06:18:04;;;;;;;16.48;4.13;;;10.20;99.90;;;;;;5059190;28;20041;-81
2023/01/05 06:20:30;;;;;;;24.27;4.70;;;10.10;99.90;;;;;;5057523;28;20044;-81
2023/01/05 06:22:55;;;;;;;23.42;5.00;;;10.20;99.90;;;;;;5057630;28;20037;-81
2023/01/05 06:25:21;;;;;;;15.95;3.92;;;10.10;99.90;;;;;;5040894;28;20033;-81
2023/01/05 06:27:46;;;;;;;23.00;4.55;;;10.20;99.90;;;;;;5057813;28;20029;-81
2023/01/05 06:30:13;;;;;;;20.98;5.13;;;10.10;99.90;;;;;;5057959;28;20062;-81
2023/01/05 06:32:38;;;;;;;15.88;4.25;;;10.00;99.90;;;;;;5048402;28;20037;-81
2023/01/05 06:35:04;;;;;;;15.48;4.20;;;10.00;99.90;;;;;;5065693;28;20055;-81
2023/01/05 06:37:30;;;;;;;19.67;3.60;;;10.00;99.90;;;;;;5051810;28;20100;-81
2023/01/05 06:39:55;;;;;;;19.67;3.80;;;10.00;99.90;;;;;;5042883;28;20099;-82
2023/01/05 06:42:21;;;;;;;21.98;4.32;;;10.00;99.90;;;;;;5056186;28;20072;-81
2023/01/05 06:44:47;;;;;;;25.35;5.55;;;10.10;99.90;;;;;;5057742;28;20547;-81
2023/01/05 06:47:13;;;;;;;17.75;4.10;;;10.00;99.90;;;;;;5058276;28;20100;-81
2023/01/05 06:49:38;;;;;;;19.25;4.40;;;10.10;99.90;;;;;;5056297;28;20079;-81
2023/01/05 06:52:07;;;;;;;20.02;3.88;;;10.00;99.90;;;;;;5055705;28;20171;-81
2023/01/05 06:54:32;;;;;;;16.73;3.92;;;9.90;99.90;;;;;;5055064;28;20044;-81
2023/01/05 06:56:58;;;;;;;15.70;4.47;;;10.00;99.90;;;;;;5061411;28;20052;-81
2023/01/05 06:59:24;;;;;;;18.75;4.45;;;10.00;99.90;;;;;;5049882;28;20048;-81
2023/01/05 07:01:50;;;;;;;28.30;5.55;;;10.00;99.90;;;;;;5042670;28;20136;-81
2023/01/05 07:04:15;;;;;;;19.98;4.13;;;10.00;99.90;;;;;;5055764;28;20073;-81
2023/01/05 07:06:41;;;;;;;34.13;7.05;;;9.80;99.90;;;;;;5040279;28;20044;-81
2023/01/05 07:09:07;;;;;;;28.95;5.93;;;9.90;99.90;;;;;;5039220;28;20125;-81
2023/01/05 07:11:32;;;;;;;16.45;4.95;;;9.90;99.90;;;;;;5056009;28;20041;-81
2023/01/05 07:13:58;;;;;;;30.00;5.18;;;10.00;99.90;;;;;;5055360;28;20478;-81
2023/01/05 07:16:23;;;;;;;26.13;5.50;;;9.80;99.90;;;;;;5055756;28;20049;-81
2023/01/05 07:18:49;;;;;;;18.48;5.07;;;10.00;99.90;;;;;;5055897;28;20106;-81
2023/01/05 07:21:14;;;;;;;22.80;4.88;;;9.90;99.90;;;;;;5038616;28;20089;-81
2023/01/05 07:23:40;;;;;;;21.17;4.97;;;9.80;99.90;;;;;;5054521;28;20503;-81
2023/01/05 07:26:07;;;;;;;17.95;5.13;;;9.90;99.90;;;;;;5056092;28;20040;-81
2023/01/05 07:28:34;;;;;;;22.05;4.90;;;9.90;99.90;;;;;;5038433;28;20040;-81
2023/01/05 07:31:00;;;;;;;20.58;4.38;;;10.10;99.90;;;;;;5038295;28;20098;-81
2023/01/05 07:33:25;;;;;;;18.90;4.50;;;10.00;99.90;;;;;;5053895;28;20045;-82
2023/01/05 07:35:51;;;;;;;20.98;4.25;;;10.00;99.90;;;;;;5059960;28;20083;-81
2023/01/05 07:38:16;;;;;;;20.92;5.07;;;10.10;99.90;;;;;;5062981;28;20053;-81
2023/01/05 07:40:42;;;;;;;23.20;5.50;;;9.90;99.90;;;;;;5064532;28;20041;-81
2023/01/05 07:43:07;;;;;;;20.75;4.97;;;10.00;99.90;;;;;;5038297;28;20565;-81
2023/01/05 07:45:33;;;;;;;33.03;5.35;;;10.00;99.90;;;;;;5058023;28;20041;-81
2023/01/05 07:48:01;;;;;;;21.30;5.75;;;10.00;99.90;;;;;;5065981;28;20045;-81
2023/01/05 07:50:36;;;;;;;18.00;3.80;;;9.90;99.90;;;;;;5066470;28;20041;-81
2023/01/05 07:53:01;;;;;;;20.38;4.72;;;10.00;99.90;;;;;;5055566;28;20051;-81
2023/01/05 07:55:27;;;;;;;18.30;4.90;;;9.90;99.90;;;;;;5056040;28;20047;-81
2023/01/05 07:57:52;;;;;;;22.30;4.63;;;10.00;99.90;;;;;;5039584;28;20076;-81
2023/01/05 08:00:18;;;;;;;23.05;5.90;;;10.00;99.90;;;;;;5056529;28;20483;-81
2023/01/05 08:02:44;;;;;;;22.20;4.18;;;10.00;99.90;;;;;;5054672;28;20521;-81
2023/01/05 08:05:10;;;;;;;19.95;4.35;;;10.00;99.90;;;;;;5049926;28;20033;-81
2023/01/05 08:07:36;;;;;;;15.80;3.53;;;10.00;99.90;;;;;;5045491;28;20766;-81
2023/01/05 08:15:30;;;;;;;18.75;5.60;;;9.90;99.90;;;;;;5055330;28;20040;-82
2023/01/05 08:17:56;;;;;;;13.82;4.80;;;10.00;99.90;;;;;;5041035;28;20040;-82
2023/01/05 08:20:21;;;;;;;19.73;4.60;;;9.90;99.90;;;;;;5060086;28;20053;-82
2023/01/05 08:22:51;;;;;;;21.60;3.83;;;9.80;99.90;;;;;;5057716;28;20495;-81
2023/01/05 08:25:17;;;;;;;20.17;4.25;;;10.00;99.90;;;;;;5055730;28;20037;-82
2023/01/05 08:27:43;;;;;;;12.80;3.67;;;10.00;99.90;;;;;;5055307;28;20037;-82
2023/01/05 08:30:10;;;;;;;23.27;4.93;;;10.00;99.90;;;;;;5054598;28;20123;-81
2023/01/05 08:32:35;;;;;;;21.60;4.95;;;10.00;99.90;;;;;;5056776;28;20048;-81
2023/01/05 08:35:01;;;;;;;24.20;5.80;;;9.80;99.90;;;;;;5060186;28;20049;-81
2023/01/05 08:37:26;;;;;;;22.30;4.30;;;9.80;99.90;;;;;;5058396;28;20049;-81
2023/01/05 08:39:52;;;;;;;20.95;6.00;;;9.80;99.90;;;;;;5043802;28;20037;-82
2023/01/05 08:42:17;;;;;;;20.83;4.95;;;9.80;99.90;;;;;;5046573;28;20083;-80
2023/01/05 08:44:43;;;;;;;20.10;4.82;;;10.00;99.90;;;;;;5059814;28;20068;-81
2023/01/05 08:47:08;;;;;;;20.65;4.55;;;9.90;99.90;;;;;;5058098;28;20114;-81
2023/01/05 08:49:34;;;;;;;20.65;4.40;;;9.90;99.90;;;;;;5057266;28;20033;-81
2023/01/05 08:51:59;;;;;;;21.48;5.00;;;9.90;99.90;;;;;;5057293;28;20467;-81
2023/01/05 08:54:25;;;;;;;26.83;4.38;;;9.90;99.90;;;;;;5056644;28;20506;-82
2023/01/05 08:56:51;;;;;;;18.08;3.55;;;10.00;99.90;;;;;;5057712;28;20403;-81
2023/01/05 08:59:17;;;;;;;19.80;4.70;;;10.00;99.90;;;;;;5057446;28;20087;-81
2023/01/05 09:01:43;;;;;;;16.50;5.32;;;10.00;99.90;;;;;;5056879;28;20036;-82
2023/01/05 09:04:09;;;;;;;25.55;4.72;;;10.10;99.90;;;;;;5057914;28;20051;-82
2023/01/05 09:06:34;;;;;;;22.15;4.30;;;10.10;99.90;;;;;;5040987;28;20387;-82
2023/01/05 09:09:00;;;;;;;20.83;5.10;;;10.10;99.90;;;;;;5057535;28;20124;-82
2023/01/05 09:11:26;;;;;;;20.83;4.72;;;10.00;99.90;;;;;;5040001;28;20033;-82
2023/01/05 09:13:56;;;;;;;20.80;4.25;;;10.00;99.90;;;;;;5041629;28;20386;-81
2023/01/05 09:16:28;;;;;;;18.15;4.28;;;10.10;99.90;;;;;;5059233;28;20040;-82
2023/01/05 09:18:55;;;;;;;29.00;5.00;;;9.90;99.90;;;;;;5042421;28;20441;-81
2023/01/05 09:21:21;;;;;;;22.35;5.05;;;9.90;99.90;;;;;;5057855;28;20040;-82
2023/01/05 09:23:46;;;;;;;22.55;4.13;;;10.00;99.90;;;;;;5056659;28;20115;-81
2023/01/05 09:26:13;;;;;;;26.40;5.43;;;9.90;99.90;;;;;;5058134;28;20560;-82
2023/01/05 09:28:39;;;;;;;28.95;6.13;;;10.00;99.90;;;;;;5041443;28;20052;-84
2023/01/05 09:31:09;;;;;;;23.30;4.45;;;10.10;99.90;;;;;;5058036;28;20033;-82
2023/01/05 09:33:35;;;;;;;18.17;5.70;;;10.00;99.90;;;;;;5057804;28;20040;-81
2023/01/05 09:36:00;;;;;;;28.92;5.32;;;10.00;99.90;;;;;;5063740;28;20191;-81
2023/01/05 09:38:26;;;;;;;28.73;6.18;;;10.00;99.90;;;;;;5052158;28;20057;-82
2023/01/05 09:40:56;;;;;;;17.17;4.63;;;10.10;99.90;;;;;;5066560;28;20117;-83
2023/01/05 09:43:26;;;;;;;20.75;5.50;;;10.00;99.90;;;;;;5050171;28;20076;-81
2023/01/05 09:45:52;;;;;;;21.42;4.40;;;10.10;99.90;;;;;;5033155;28;20558;-81
2023/01/05 09:48:20;;;;;;;21.17;3.38;;;10.00;99.90;;;;;;5026004;28;20035;-80
2023/01/05 09:50:49;;;;;;;19.13;4.43;;;9.90;99.90;;;;;;5042815;28;20041;-80
2023/01/05 09:53:22;;;;;;;17.88;3.75;;;9.90;99.90;;;;;;5042265;28;20093;-81
2023/01/05 09:55:49;;;;;;;19.70;4.35;;;9.90;99.90;;;;;;5047982;28;20041;-80
2023/01/05 09:58:22;;;;;;;17.50;3.38;;;10.00;99.90;;;;;;5047126;28;20499;-80
2023/01/05 10:01:16;;;;;;;19.15;4.32;;;9.90;99.90;;;;;;5030586;28;20029;-82
2023/01/05 10:03:53;;;;;;;21.27;3.47;;;10.00;99.90;;;;;;5042933;28;20046;-81
2023/01/05 10:06:20;;;;;;;26.02;4.50;;;10.00;99.90;;;;;;5040159;28;20045;-81
2023/01/05 10:08:50;;;;;;;18.98;4.32;;;10.00;99.90;;;;;;5027182;28;20041;-81
2023/01/05 10:14:16;;;;;;;16.23;3.97;;;10.10;99.90;;;;;;5056754;28;20045;-82
2023/01/05 10:16:44;;;;;;;18.88;3.97;;;10.10;99.90;;;;;;5060436;28;20099;-82
2023/01/05 10:19:14;;;;;;;16.10;3.10;;;10.10;99.90;;;;;;5064065;28;20457;-82
2023/01/05 10:22:08;;;;;;;18.35;3.80;;;10.00;99.90;;;;;;5068831;28;20071;-82
2023/01/05 10:25:02;;;;;;;11.10;2.90;;;10.00;99.90;;;;;;5071041;28;20513;-83
2023/01/05 10:27:40;;;;;;;18.92;3.08;;;10.10;99.90;;;;;;5062141;28;20117;-81
2023/01/05 10:30:20;;;;;;;16.42;3.20;;;10.00;99.90;;;;;;5057563;28;20101;-81
2023/01/05 10:33:12;;;;;;;13.77;2.90;;;10.10;99.90;;;;;;5056046;28;20041;-81
2023/01/05 10:36:00;;;;;;;12.88;3.55;;;10.10;99.90;;;;;;5041808;28;20422;-80
2023/01/05 10:38:59;;;;;;;16.65;3.00;;;10.00;99.90;;;;;;5054832;28;20564;-78
2023/01/05 10:41:44;;;;;;;24.13;3.90;;;9.90;99.90;;;;;;5051840;28;20037;-75
2023/01/05 10:44:26;;;;;;;18.00;3.13;;;9.90;99.90;;;;;;5035190;28;20494;-75
2023/01/05 10:46:51;;;;;;;12.55;2.47;;;10.10;99.90;;;;;;5051690;28;20048;-75
2023/01/05 10:49:31;;;;;;;17.40;2.55;;;10.00;99.90;;;;;;5051190;28;20041;-76
2023/01/05 10:51:59;;;;;;;10.63;2.97;;;10.00;99.90;;;;;;5051497;28;20395;-75
2023/01/05 10:54:44;;;;;;;15.05;2.35;;;9.90;99.90;;;;;;5050453;28;20443;-76
2023/01/05 10:57:31;;;;;;;12.50;2.20;;;10.00;99.90;;;;;;5051658;28;20041;-75
2023/01/05 11:00:05;;;;;;;6.07;1.42;;;10.10;99.90;;;;;;5051321;28;20048;-76
2023/01/05 11:02:48;;;;;;;6.20;1.58;;;10.00;99.90;;;;;;5051615;28;20049;-76
2023/01/05 11:05:26;;;;;;;9.20;1.63;;;10.10;99.90;;;;;;5052566;28;20609;-76
2023/01/05 11:08:02;;;;;;;9.10;1.67;;;10.10;99.90;;;;;;5051096;28;20047;-76
2023/01/05 11:10:29;;;;;;;9.15;2.00;;;10.10;99.90;;;;;;5052390;28;20044;-76
2023/01/05 11:13:02;;;;;;;7.32;1.90;;;10.20;99.90;;;;;;5033548;28;20051;-76
2023/01/05 11:15:30;;;;;;;10.13;3.13;;;10.20;99.90;;;;;;5051316;28;20052;-76
2023/01/05 11:17:57;;;;;;;7.03;1.38;;;10.10;99.90;;;;;;5052117;28;20163;-76
2023/01/05 11:20:23;;;;;;;9.07;1.67;;;10.20;99.90;;;;;;5052245;28;20045;-76
2023/01/05 11:22:50;;;;;;;7.68;2.08;;;10.20;99.90;;;;;;5051299;28;20049;-76
2023/01/05 11:25:16;;;;;;;16.95;2.90;;;10.20;99.90;;;;;;5052025;28;20096;-76
2023/01/05 11:27:41;;;;;;;13.13;2.92;;;10.30;99.90;;;;;;5050830;28;20495;-76
2023/01/05 11:30:19;;;;;;;17.48;2.60;;;10.10;99.90;;;;;;5050663;28;20124;-76
2023/01/05 11:32:45;;;;;;;10.95;2.72;;;10.20;99.90;;;;;;5051335;28;20041;-76
2023/01/05 11:35:28;;;;;;;19.45;3.00;;;10.20;99.90;;;;;;5034057;28;20131;-76
2023/01/05 11:37:56;;;;;;;16.42;3.45;;;10.20;99.90;;;;;;5050642;28;20053;-75
2023/01/05 11:40:26;;;;;;;13.88;4.00;;;10.10;99.90;;;;;;5051137;28;20438;-75
2023/01/05 11:42:51;;;;;;;10.25;2.55;;;10.20;99.90;;;;;;5050138;28;20049;-75
2023/01/05 11:45:28;;;;;;;15.25;2.70;;;10.20;99.90;;;;;;5050722;28;20090;-75
2023/01/05 11:47:55;;;;;;;20.58;3.03;;;10.20;99.90;;;;;;5050512;28;20041;-75
2023/01/05 11:50:24;;;;;;;19.20;2.85;;;10.10;99.90;;;;;;5050635;28;20040;-76
2023/01/05 11:52:52;;;;;;;13.57;2.60;;;10.10;99.90;;;;;;5050312;28;20045;-75
2023/01/05 11:55:29;;;;;;;15.10;3.25;;;10.20;99.90;;;;;;5050434;28;20044;-76
2023/01/05 11:57:58;;;;;;;11.45;3.78;;;10.20;99.90;;;;;;5052082;28;20041;-75
2023/01/05 12:00:26;;;;;;;15.13;3.20;;;10.20;99.90;;;;;;5050610;28;20568;-76
2023/01/05 12:03:19;;;;;;;15.95;3.38;;;10.10;99.90;;;;;;5051511;28;20114;-76
2023/01/05 12:05:51;;;;;;;15.60;2.88;;;10.30;99.90;;;;;;5051721;28;20036;-76
2023/01/05 12:08:32;;;;;;;14.80;3.58;;;10.30;99.90;;;;;;5049609;28;20037;-76
2023/01/05 12:11:05;;;;;;;12.43;3.17;;;10.30;99.90;;;;;;5034009;28;20079;-76
2023/01/05 12:14:03;;;;;;;16.58;2.97;;;10.20;99.90;;;;;;5049537;28;20573;-76
2023/01/05 12:16:46;;;;;;;13.05;3.13;;;10.30;99.90;;;;;;5033828;28;20521;-76
2023/01/05 12:19:33;;;;;;;12.32;2.92;;;10.20;99.90;;;;;;5050258;28;20171;-76
2023/01/05 12:22:34;;;;;;;19.75;3.15;;;10.20;99.90;;;;;;5050248;28;20037;-76
2023/01/05 12:25:36;;;;;;;13.02;3.00;;;10.30;99.90;;;;;;4973744;28;20455;-76
2023/01/05 12:28:31;;;;;;;18.77;3.60;;;10.40;99.90;;;;;;5049988;28;20037;-76
2023/01/05 12:31:13;;;;;;;13.80;3.60;;;10.30;99.90;;;;;;5051400;28;20045;-76
2023/01/05 12:34:10;;;;;;;13.20;3.42;;;10.40;99.90;;;;;;5050598;28;20226;-76
2023/01/05 12:36:42;;;;;;;11.10;3.33;;;10.30;99.90;;;;;;5051251;28;20383;-76
2023/01/05 12:39:40;;;;;;;15.00;3.28;;;10.50;99.90;;;;;;5051341;28;20049;-76
2023/01/05 12:42:30;;;;;;;11.60;3.28;;;10.50;99.90;;;;;;5050087;28;20047;-75
2023/01/05 12:45:26;;;;;;;8.32;3.15;;;10.60;99.90;;;;;;5051414;28;20049;-75
2023/01/05 12:48:21;;;;;;;11.85;2.88;;;10.50;99.90;;;;;;5050992;28;20119;-76
2023/01/05 12:51:04;;;;;;;12.18;2.60;;;10.40;99.90;;;;;;5033323;28;20045;-76
2023/01/05 12:53:45;;;;;;;13.63;3.17;;;10.40;99.90;;;;;;5050596;28;20044;-75
2023/01/05 12:56:35;;;;;;;8.95;2.58;;;10.40;99.90;;;;;;5051181;28;20033;-75
2023/01/05 12:59:20;;;;;;;16.67;3.17;;;10.40;99.90;;;;;;5050922;28;20076;-75
2023/01/05 13:02:06;;;;;;;9.25;2.58;;;10.40;99.90;;;;;;5049629;28;20033;-76
2023/01/05 13:04:39;;;;;;;12.07;2.75;;;10.50;99.90;;;;;;5048928;28;20072;-76
2023/01/05 13:07:14;;;;;;;12.20;2.58;;;10.50;99.90;;;;;;5049680;28;20041;-76
2023/01/05 13:09:43;;;;;;;13.95;2.72;;;10.40;99.90;;;;;;5049613;28;20041;-76
2023/01/05 13:12:12;;;;;;;11.50;2.65;;;10.50;99.90;;;;;;5032945;28;20045;-76
2023/01/05 13:14:54;;;;;;;8.35;3.05;;;10.50;99.90;;;;;;5048922;28;20052;-76
2023/01/05 13:17:33;;;;;;;10.98;2.75;;;10.40;99.90;;;;;;5049557;28;20542;-76
2023/01/05 13:20:15;;;;;;;14.88;3.40;;;10.40;99.90;;;;;;5053109;28;20134;-76
2023/01/05 13:22:43;;;;;;;13.10;4.18;;;10.50;99.90;;;;;;5053825;28;20055;-76
2023/01/05 13:25:19;;;;;;;13.70;3.15;;;10.40;99.90;;;;;;5054444;28;20037;-75
2023/01/05 13:27:45;;;;;;;16.50;3.92;;;10.50;99.90;;;;;;5054302;28;20517;-76
2023/01/05 13:30:21;;;;;;;15.38;4.25;;;10.50;99.90;;;;;;5052761;28;20072;-76
2023/01/05 13:33:16;;;;;;;18.75;4.03;;;10.60;99.90;;;;;;5053683;28;20051;-76
2023/01/05 13:35:51;;;;;;;12.82;3.00;;;10.60;99.90;;;;;;5036210;28;20467;-76
2023/01/05 13:38:50;;;;;;;18.17;3.60;;;10.50;99.90;;;;;;5054060;28;20037;-76